Last 48 Hours

Stanford Met Tower

Hourly Data | America/Los_Angeles
as of 8/31/26 1:11 PM PDT
Date & Time Temp (°F) RH (%) Dew Pt (°F) Wind Dir (°) Wind Spd (mph) Wind Gust (mph) Solar Rad (W/m2) Pressure (mb) NowCast AQI Value (AQI) NowCast AQI Status Latest Rain (In) Daily Rain (In) Daily Min Temp (°F) Daily Max Temp (°F)
8/31/26 - 1300 64.5 70 55.5 WNW | 298 4.5 13.6 405 1,016.4 21 Good 0.00 0.00 51.4 66.2
8/31/26 - 1200 63.4 71 54.8 NW | 326 2.1 9.1 358 1,016.8 21 Good 0.00 0.00 51.4 64.5
8/31/26 - 1100 61.6 73 53.8 WNW | 288 1.3 6.2 258 1,017.2 21 Good 0.00 0.00 51.4 63.1
8/31/26 - 1000 60.5 74 53.1 WNW | 290 0.6 5.8 196 1,017.2 21 Good 0.00 0.00 51.4 61.5
8/31/26 - 0900 57.1 88 54.6 E | 83 0.1 3.4 122 1,016.9 21 Good 0.00 0.00 51.4 60.1
8/31/26 - 0800 52.1 96 52.0 SW | 222 0.2 3.7 42 1,017.1 21 Good 0.00 0.00 51.4 57.9
8/31/26 - 0700 52.2 93 51.4 SW | 226 0.6 5.3 3 1,016.5 21 Good 0.00 0.00 51.6 57.9
8/31/26 - 0600 53.0 91 51.6 WSW | 248 3.9 7.7 0 1,016.0 21 Good 0.00 0.00 52.6 57.9
8/31/26 - 0500 54.6 86 51.7 SSW | 201 3.6 8.4 0 1,015.7 21 Good 0.00 0.00 53.2 57.9
8/31/26 - 0400 55.3 88 52.7 SW | 215 3.5 11.2 0 1,015.4 21 Good 0.00 0.00 54.8 57.9
8/31/26 - 0300 56.9 87 54.0 SSW | 209 4.0 7.2 0 1,015.0 21 Good 0.00 0.00 55.9 57.9
8/31/26 - 0200 56.8 90 54.8 SSW | 203 3.4 7.0 0 1,015.0 21 Good 0.00 0.00 55.9 57.7
8/31/26 - 0100 55.3 93 54.3 S | 187 2.0 5.2 0 1,015.4 21 Good 0.00 0.00 49.1 72.3
8/31/26 - 0000 55.5 92 54.1 SE | 135 1.4 5.6 0 1,015.4 21 Good 0.00 0.00 49.1 72.3
8/30/26 - 2300 57.0 89 54.9 SSE | 147 2.1 5.9 0 1,015.3 21 Good 0.00 0.00 49.1 72.3
8/30/26 - 2200 59.0 84 55.3 SSE | 162 0.3 3.7 0 1,015.2 21 Good 0.00 0.00 49.1 72.3
8/30/26 - 2100 62.2 74 54.8 S | 175 2.2 6.3 0 1,014.6 21 Good 0.00 0.00 49.1 72.3
8/30/26 - 2000 66.6 65 55.4 SSW | 197 2.5 8.1 22 1,013.9 21 Good 0.00 0.00 49.1 72.3
8/30/26 - 1900 70.5 59 56.6 NNE | 22 2.2 8.0 178 1,013.2 21 Good 0.00 0.00 49.1 72.3
8/30/26 - 1800 71.0 62 58.3 NNE | 31 5.0 11.0 375 1,013.0 21 Good 0.00 0.00 49.1 72.3
8/30/26 - 1700 70.8 62 57.9 NNE | 23 6.1 13.5 563 1,013.2 21 Good 0.00 0.00 49.1 72.3
8/30/26 - 1600 70.6 62 58.0 NNE | 15 7.4 13.4 718 1,013.3 21 Good 0.00 0.00 49.1 72.3
8/30/26 - 1500 70.2 64 58.2 NNE | 15 6.8 12.1 820 1,013.3 21 Good 0.00 0.00 49.1 72.3
8/30/26 - 1400 69.1 64 57.6 NNE | 12 7.2 15.3 867 1,014.3 21 Good 0.00 0.00 49.1 72.3
8/30/26 - 1300 70.5 60 56.9 NE | 36 6.7 14.7 855 1,014.7 21 Good 0.00 0.00 49.1 72.3
8/30/26 - 1200 68.6 62 55.8 NE | 34 4.8 11.9 786 1,015.0 21 Good 0.00 0.00 49.1 69.9
8/30/26 - 1100 67.8 61 54.7 ENE | 69 1.9 9.0 666 1,015.5 21 Good 0.00 0.00 49.1 69.5
8/30/26 - 1000 64.1 67 53.9 WSW | 239 2.0 7.8 499 1,016.1 21 Good 0.00 0.00 49.1 66.1
8/30/26 - 0900 61.2 74 53.8 NE | 48 1.9 6.5 306 1,017.0 21 Good 0.00 0.00 49.1 62.9
8/30/26 - 0800 52.9 94 52.3 WSW | 256 1.0 5.3 119 1,017.3 21 Good 0.00 0.00 49.1 57.2
8/30/26 - 0700 49.8 94 49.2 SW | 226 1.8 5.5 6 1,017.2 21 Good 0.00 0.00 49.1 54.2
8/30/26 - 0600 50.1 94 49.4 SSW | 206 2.6 6.1 0 1,016.8 21 Good 0.00 0.00 49.5 54.2
8/30/26 - 0500 50.0 94 49.3 SSW | 208 3.4 6.9 0 1,016.7 21 Good 0.00 0.00 49.6 54.2
8/30/26 - 0400 51.1 90 49.3 S | 177 0.1 4.0 0 1,016.7 21 Good 0.00 0.00 50.6 54.2
8/30/26 - 0300 51.5 87 48.7 SW | 233 0.1 2.4 0 1,016.6 21 Good 0.00 0.00 50.9 54.2
8/30/26 - 0200 53.1 82 48.9 SSW | 204 1.1 5.3 0 1,016.7 21 Good 0.00 0.00 51.7 54.2
8/30/26 - 0100 54.3 81 49.5 SW | 226 0.3 4.0 0 1,016.8 21 Good 0.00 0.00 49.5 80.0
8/30/26 - 0000 56.1 78 50.4 SE | 140 0.8 5.6 0 1,016.5 21 Good 0.00 0.00 49.5 80.0
8/29/26 - 2300 58.4 72 50.2 ESE | 111 1.7 5.4 0 1,016.8 21 Good 0.00 0.00 49.5 80.0
8/29/26 - 2200 60.5 68 50.7 S | 186 3.9 7.5 0 1,016.9 21 Good 0.00 0.00 49.5 80.0
8/29/26 - 2100 64.3 60 51.1 SSW | 205 2.2 6.7 0 1,016.5 21 Good 0.00 0.00 49.5 80.0
8/29/26 - 2000 68.3 53 51.4 NW | 305 1.3 8.7 24 1,015.8 21 Good 0.00 0.00 49.5 80.0
8/29/26 - 1900 71.9 48 52.3 NW | 312 4.8 12.4 191 1,015.1 21 Good 0.00 0.00 49.5 80.0
8/29/26 - 1800 74.0 44 51.6 NNW | 327 6.5 15.6 388 1,015.0 21 Good 0.00 0.00 49.5 80.0
8/29/26 - 1700 76.2 39 50.5 NNW | 329 9.0 17.6 573 1,014.6 21 Good 0.00 0.00 49.5 80.0
8/29/26 - 1600 77.9 39 52.0 NNW | 340 8.4 19.2 722 1,014.7 21 Good 0.00 0.00 49.5 80.0
8/29/26 - 1500 76.9 47 55.8 N | 356 7.4 15.3 822 1,014.4 21 Good 0.00 0.00 49.5 79.4
8/29/26 - 1400 75.6 54 58.5 NNE | 20 4.9 11.2 864 1,014.8 21 Good 0.00 0.00 49.5 78.5
8/29/26 - 1300 72.5 61 59.1 N | 11 4.8 10.9 854 1,015.6 21 Good 0.00 0.00 49.5 73.8
Max 77.9 96 59.1 - 9.0 19.2 867 1,017.3 21 - 0.00 0.00 55.9 80.0
Avg 62.1 73 53.5 - 3.2 8.6 257 1,015.6 21 - 0.00 - - -
Min 49.8 39 48.7 - 0.1 2.4 0 1,013.0 21 - 0.00 0.00 49.1 54.2
Total - - - - - - - - - - 0.00 - - -